Time;durP1;ratioP1;P1;durP2;ratioP2;P2;SDS_P1;SDS_P2;PMS_P1;PMS_P2;Temp;Humidity;BMP_temperature;BMP_pressure;BME280_temperature;BME280_humidity;BME280_pressure;Samples;Min_cycle;Max_cycle;Signal;HPM_P1;HPM_P2
2023/01/16 00:01:49;;;;;;;;;;;5.60;99.90;;;;;;4894976;29;19927;-66
2023/01/16 00:04:15;;;;;;;;;;;5.60;99.90;;;;;;4903471;29;20044;-66
2023/01/16 00:06:41;;;;;;;;;;;5.60;99.90;;;;;;4893574;29;20471;-65
2023/01/16 00:09:06;;;;;;;;;;;5.60;99.90;;;;;;4898534;29;19930;-65
2023/01/16 00:11:32;;;;;;;;;;;5.60;99.90;;;;;;4897888;29;20319;-66
2023/01/16 00:13:59;;;;;;;;;;;5.60;99.90;;;;;;4896104;29;20057;-66
2023/01/16 00:16:25;;;;;;;;;;;5.60;99.90;;;;;;4895431;29;19919;-67
2023/01/16 00:18:50;;;;;;;;;;;5.50;99.90;;;;;;4889059;29;19915;-67
2023/01/16 00:21:17;;;;;;;;;;;5.50;99.90;;;;;;4896019;29;21272;-67
2023/01/16 00:23:42;;;;;;;;;;;5.50;99.90;;;;;;4893119;29;19967;-66
2023/01/16 00:26:09;;;;;;;;;;;5.30;99.90;;;;;;4896809;29;20351;-66
2023/01/16 00:28:37;;;;;;;;;;;5.20;99.90;;;;;;4894494;29;19923;-67
2023/01/16 00:31:03;;;;;;;;;;;5.00;99.90;;;;;;4891844;29;19915;-67
2023/01/16 00:33:28;;;;;;;;;;;4.90;99.90;;;;;;4892363;29;20414;-67
2023/01/16 00:35:54;;;;;;;;;;;4.80;99.90;;;;;;4895747;29;20592;-65
2023/01/16 00:38:19;;;;;;;;;;;4.70;99.90;;;;;;4895823;29;20379;-64
2023/01/16 00:40:45;;;;;;;;;;;4.70;99.90;;;;;;4891407;29;19926;-64
2023/01/16 00:43:11;;;;;;;;;;;4.90;99.90;;;;;;4897352;29;20026;-64
2023/01/16 00:45:36;;;;;;;;;;;5.10;99.90;;;;;;4894236;29;19915;-65
2023/01/16 00:48:02;;;;;;;;;;;5.10;99.90;;;;;;4899807;29;19934;-65
2023/01/16 00:50:27;;;;;;;;;;;5.20;99.90;;;;;;4890807;29;19988;-66
2023/01/16 00:52:53;;;;;;;;;;;5.20;99.90;;;;;;4895955;29;19922;-65
2023/01/16 00:55:18;;;;;;;;;;;5.30;99.90;;;;;;4894872;29;19926;-67
2023/01/16 00:57:44;;;;;;;;;;;5.30;99.90;;;;;;4891370;29;19935;-67
2023/01/16 01:00:10;;;;;;;;;;;5.30;99.90;;;;;;4889132;29;20402;-67
2023/01/16 01:02:35;;;;;;;;;;;5.20;99.90;;;;;;4893765;29;19915;-67
2023/01/16 01:05:01;;;;;;;;;;;5.30;99.90;;;;;;4894747;29;21933;-67
2023/01/16 01:07:26;;;;;;;;;;;5.30;99.90;;;;;;4888603;29;19986;-66
2023/01/16 01:09:52;;;;;;;;;;;5.40;99.90;;;;;;4895545;29;20698;-68
2023/01/16 01:12:17;;;;;;;;;;;5.40;99.90;;;;;;4889438;29;19919;-67
2023/01/16 01:14:43;;;;;;;;;;;5.40;99.90;;;;;;4885791;29;19918;-66
2023/01/16 01:17:09;;;;;;;;;;;5.50;99.90;;;;;;4891859;29;19919;-66
2023/01/16 01:19:35;;;;;;;;;;;5.60;99.90;;;;;;4888532;29;19969;-66
2023/01/16 01:22:00;;;;;;;;;;;5.60;99.90;;;;;;4885471;29;19919;-66
2023/01/16 01:24:26;;;;;;;;;;;5.60;99.90;;;;;;4905995;29;19966;-66
2023/01/16 01:26:51;;;;;;;;;;;5.60;99.90;;;;;;4905915;29;20017;-66
2023/01/16 01:29:17;;;;;;;;;;;5.60;99.90;;;;;;4892602;29;19919;-66
2023/01/16 01:31:42;;;;;;;;;;;5.60;99.90;;;;;;4888991;29;19918;-64
2023/01/16 01:34:08;;;;;;;;;;;5.70;99.90;;;;;;4892010;29;20382;-65
2023/01/16 01:36:33;;;;;;;;;;;5.80;99.90;;;;;;4895312;29;20360;-64
2023/01/16 01:38:59;;;;;;;;;;;5.80;99.90;;;;;;4891506;29;19915;-66
2023/01/16 01:41:24;;;;;;;;;;;5.80;99.90;;;;;;4890071;29;19919;-65
2023/01/16 01:43:51;;;;;;;;;;;5.80;99.90;;;;;;4889894;29;19919;-65
2023/01/16 01:46:29;;;;;;;;;;;5.80;99.90;;;;;;4888151;29;20419;-66
2023/01/16 01:49:00;;;;;;;;;;;5.80;99.90;;;;;;4890881;29;19922;-66
2023/01/16 01:51:38;;;;;;;;;;;5.70;99.90;;;;;;4893387;29;20834;-66
2023/01/16 01:54:06;;;;;;;;;;;5.70;99.90;;;;;;4887819;29;20037;-66
2023/01/16 01:56:34;;;;;;;;;;;5.80;99.90;;;;;;4887800;29;19954;-65
2023/01/16 01:59:05;;;;;;;;;;;5.90;99.90;;;;;;4889943;29;20808;-66
2023/01/16 02:01:31;;;;;;;;;;;6.00;99.90;;;;;;4890503;29;19942;-66
2023/01/16 02:03:58;;;;;;;;;;;6.00;99.90;;;;;;4891414;29;20086;-66
2023/01/16 02:06:28;;;;;;;;;;;6.10;99.90;;;;;;4887602;29;19915;-65
2023/01/16 02:08:54;;;;;;;;;;;6.00;99.90;;;;;;4891204;29;19973;-67
2023/01/16 02:11:38;;;;;;;;;;;6.00;99.90;;;;;;4888789;29;19975;-67
2023/01/16 02:14:11;;;;;;;;;;;5.90;99.90;;;;;;4893006;29;19926;-67
2023/01/16 02:19:40;;;;;;;;;;;5.70;99.90;;;;;;4893357;29;19936;-66
2023/01/16 02:22:11;;;;;;;;;;;5.70;99.90;;;;;;4885370;29;19962;-66
2023/01/16 02:24:54;;;;;;;;;;;5.80;99.90;;;;;;4888307;29;19915;-66
2023/01/16 02:27:39;;;;;;;;;;;5.80;99.90;;;;;;4888610;29;20043;-65
2023/01/16 02:30:04;;;;;;;;;;;6.00;99.90;;;;;;4890786;29;19919;-64
2023/01/16 02:32:36;;;;;;;;;;;6.00;99.90;;;;;;4890992;29;20006;-64
2023/01/16 02:35:16;;;;;;;;;;;6.00;99.90;;;;;;4891772;29;20014;-65
2023/01/16 02:37:48;;;;;;;;;;;6.00;99.90;;;;;;4887388;29;19915;-65
2023/01/16 02:40:21;;;;;;;;;;;6.00;99.90;;;;;;4896678;29;19915;-65
2023/01/16 02:43:05;;;;;;;;;;;6.00;99.90;;;;;;4895381;29;19919;-66
2023/01/16 02:45:38;;;;;;;;;;;6.00;99.90;;;;;;4898068;29;19985;-65
2023/01/16 02:48:11;;;;;;;;;;;6.10;99.90;;;;;;4896220;29;21646;-66
2023/01/16 02:50:44;;;;;;;;;;;6.10;99.90;;;;;;4895144;29;20415;-66
2023/01/16 02:53:21;;;;;;;;;;;6.10;99.90;;;;;;4898671;29;19923;-67
2023/01/16 02:55:53;;;;;;;;;;;6.10;99.90;;;;;;4893120;29;19935;-67
2023/01/16 02:58:20;;;;;;;;;;;6.10;99.90;;;;;;4890478;29;19922;-67
2023/01/16 03:00:52;;;;;;;;;;;6.10;99.90;;;;;;4894934;29;19947;-68
2023/01/16 03:03:28;;;;;;;;;;;6.10;99.90;;;;;;4897772;29;19942;-67
2023/01/16 03:05:57;;;;;;;;;;;6.20;99.90;;;;;;4893341;29;20303;-68
2023/01/16 03:08:33;;;;;;;;;;;6.30;99.90;;;;;;4896386;29;20010;-67
2023/01/16 03:11:08;;;;;;;;;;;6.20;99.90;;;;;;4894604;29;19911;-67
2023/01/16 03:13:47;;;;;;;;;;;6.10;99.90;;;;;;4893758;29;19916;-68
2023/01/16 03:16:18;;;;;;;;;;;6.00;99.90;;;;;;4893979;29;20459;-68
2023/01/16 03:19:10;;;;;;;;;;;5.80;99.90;;;;;;4894971;29;19919;-67
2023/01/16 03:21:42;;;;;;;;;;;5.80;99.90;;;;;;4898101;29;20061;-67
2023/01/16 03:24:43;;;;;;;;;;;5.70;99.90;;;;;;4900395;29;19915;-68
2023/01/16 03:27:20;;;;;;;;;;;5.70;99.90;;;;;;4892773;29;19923;-66
2023/01/16 03:29:50;;;;;;;;;;;5.70;99.90;;;;;;4895473;29;19998;-66
2023/01/16 03:32:22;;;;;;;;;;;5.70;99.90;;;;;;4900022;29;20637;-66
2023/01/16 03:34:53;;;;;;;;;;;5.70;99.90;;;;;;4899937;29;19912;-66
2023/01/16 03:37:21;;;;;;;;;;;5.70;99.90;;;;;;4912179;29;19922;-66
2023/01/16 03:39:51;;;;;;;;;;;5.70;99.90;;;;;;4899626;29;19930;-66
2023/01/16 03:42:23;;;;;;;;;;;5.60;99.90;;;;;;4901332;29;20006;-66
2023/01/16 03:44:51;;;;;;;;;;;5.50;99.90;;;;;;4901413;29;19922;-67
2023/01/16 03:47:20;;;;;;;;;;;5.50;99.90;;;;;;4897525;29;19966;-67
2023/01/16 03:49:47;;;;;;;;;;;5.50;99.90;;;;;;4896990;29;19915;-68
2023/01/16 03:52:15;;;;;;;;;;;5.60;99.90;;;;;;4900374;29;19915;-68
2023/01/16 03:54:44;;;;;;;;;;;5.70;99.90;;;;;;4899797;29;19929;-67
2023/01/16 03:57:12;;;;;;;;;;;5.70;99.90;;;;;;4898675;29;20459;-67
2023/01/16 03:59:38;;;;;;;;;;;5.70;99.90;;;;;;4894759;29;19915;-67
2023/01/16 04:02:09;;;;;;;;;;;5.70;99.90;;;;;;4898440;29;19919;-67
2023/01/16 04:04:45;;;;;;;;;;;5.70;99.90;;;;;;4893376;29;19915;-68
2023/01/16 04:07:20;;;;;;;;;;;5.70;99.90;;;;;;4898528;29;19923;-67
2023/01/16 04:10:12;;;;;;;;;;;5.60;99.90;;;;;;4898479;29;19922;-67
2023/01/16 04:12:52;;;;;;;;;;;5.60;99.90;;;;;;4895183;29;20476;-68
2023/01/16 04:15:18;;;;;;;;;;;5.50;99.90;;;;;;4891118;29;19911;-68
2023/01/16 04:17:43;;;;;;;;;;;5.50;99.90;;;;;;4897403;29;20443;-68
2023/01/16 04:20:09;;;;;;;;;;;5.50;99.90;;;;;;4894716;29;19919;-67
2023/01/16 04:22:35;;;;;;;;;;;5.50;99.90;;;;;;4896821;29;19933;-67
2023/01/16 04:25:02;;;;;;;;;;;5.50;99.90;;;;;;4897621;29;19922;-68
2023/01/16 04:27:28;;;;;;;;;;;5.50;99.90;;;;;;4899223;29;20368;-68
2023/01/16 04:29:53;;;;;;;;;;;5.60;99.90;;;;;;4897961;29;19957;-68
2023/01/16 04:32:19;;;;;;;;;;;5.60;99.90;;;;;;4894151;29;19962;-68
2023/01/16 04:34:44;;;;;;;;;;;5.60;99.90;;;;;;4899030;29;19919;-68
2023/01/16 04:37:12;;;;;;;;;;;5.60;99.90;;;;;;4897039;29;19946;-68
2023/01/16 04:39:37;;;;;;;;;;;5.70;99.90;;;;;;4897905;29;19926;-67
2023/01/16 04:42:03;;;;;;;;;;;5.70;99.90;;;;;;4896217;29;20360;-66
2023/01/16 04:44:28;;;;;;;;;;;5.70;99.90;;;;;;4898203;29;20011;-66
2023/01/16 04:46:54;;;;;;;;;;;5.80;99.90;;;;;;4909769;29;20388;-66
2023/01/16 04:49:20;;;;;;;;;;;5.80;99.90;;;;;;4900135;29;20340;-66
2023/01/16 04:51:45;;;;;;;;;;;5.80;99.90;;;;;;4899832;29;20046;-66
2023/01/16 04:54:15;;;;;;;;;;;5.70;99.90;;;;;;4897230;29;19923;-66
2023/01/16 04:56:41;;;;;;;;;;;5.60;99.90;;;;;;4897514;29;19919;-66
2023/01/16 04:59:07;;;;;;;;;;;5.50;99.90;;;;;;4898075;29;19963;-66
2023/01/16 05:01:34;;;;;;;;;;;5.50;99.90;;;;;;4899144;29;20336;-66
2023/01/16 05:04:01;;;;;;;;;;;5.50;99.90;;;;;;4896451;29;20002;-66
2023/01/16 05:06:26;;;;;;;;;;;5.50;99.90;;;;;;4896233;29;19915;-66
2023/01/16 05:08:52;;;;;;;;;;;5.60;99.90;;;;;;4897110;29;19929;-66
2023/01/16 05:11:17;;;;;;;;;;;5.60;99.90;;;;;;4896024;29;19918;-66
2023/01/16 05:13:43;;;;;;;;;;;5.60;99.90;;;;;;4899424;29;19919;-66
2023/01/16 05:16:08;;;;;;;;;;;5.70;99.90;;;;;;4896795;29;19919;-66
2023/01/16 05:18:34;;;;;;;;;;;5.70;99.90;;;;;;4897333;29;19929;-66
2023/01/16 05:21:00;;;;;;;;;;;5.70;99.90;;;;;;4900483;29;20373;-66
2023/01/16 05:23:25;;;;;;;;;;;5.80;99.90;;;;;;4895614;29;19922;-66
2023/01/16 05:25:51;;;;;;;;;;;5.70;99.90;;;;;;4897953;29;19930;-66
2023/01/16 05:28:17;;;;;;;;;;;5.70;99.90;;;;;;4896721;29;19989;-67
2023/01/16 05:30:42;;;;;;;;;;;5.80;99.90;;;;;;4898668;29;19915;-66
2023/01/16 05:33:08;;;;;;;;;;;5.90;99.90;;;;;;4892250;29;20014;-67
2023/01/16 05:35:33;;;;;;;;;;;5.90;99.90;;;;;;4894151;29;19911;-67
2023/01/16 05:37:59;;;;;;;;;;;5.90;99.90;;;;;;4901837;29;19923;-69
2023/01/16 05:40:24;;;;;;;;;;;5.90;99.90;;;;;;4902881;29;19922;-66
2023/01/16 05:42:50;;;;;;;;;;;5.90;99.90;;;;;;4894489;29;20772;-67
2023/01/16 05:45:15;;;;;;;;;;;5.80;99.90;;;;;;4896502;29;19919;-67
2023/01/16 05:47:41;;;;;;;;;;;5.90;99.90;;;;;;4897349;29;19923;-67
2023/01/16 05:50:08;;;;;;;;;;;5.80;99.90;;;;;;4895695;29;20663;-67
2023/01/16 05:52:33;;;;;;;;;;;5.80;99.90;;;;;;4895262;29;19922;-67
2023/01/16 05:54:59;;;;;;;;;;;5.80;99.90;;;;;;4894198;29;19926;-67
2023/01/16 05:57:25;;;;;;;;;;;5.70;99.90;;;;;;4896249;29;19941;-69
2023/01/16 05:59:50;;;;;;;;;;;5.70;99.90;;;;;;4895460;29;19915;-66
2023/01/16 06:02:16;;;;;;;;;;;5.80;99.90;;;;;;4894257;29;20002;-66
2023/01/16 06:04:42;;;;;;;;;;;5.80;99.90;;;;;;4893598;29;19919;-66
2023/01/16 06:07:07;;;;;;;;;;;5.80;99.90;;;;;;4905623;29;19925;-66
2023/01/16 06:09:33;;;;;;;;;;;5.80;99.90;;;;;;4894805;29;19923;-66
2023/01/16 06:11:58;;;;;;;;;;;5.80;99.90;;;;;;4908107;29;19926;-66
2023/01/16 06:14:24;;;;;;;;;;;5.80;99.90;;;;;;4894237;29;20041;-67
2023/01/16 06:16:49;;;;;;;;;;;5.80;99.90;;;;;;4894703;29;19919;-66
2023/01/16 06:19:15;;;;;;;;;;;5.70;99.90;;;;;;4898022;29;19911;-68
2023/01/16 06:21:40;;;;;;;;;;;5.70;99.90;;;;;;4895831;29;19914;-69
2023/01/16 06:24:06;;;;;;;;;;;5.60;99.90;;;;;;4895392;29;20363;-69
2023/01/16 06:26:32;;;;;;;;;;;5.70;99.90;;;;;;4892518;29;20235;-70
2023/01/16 06:28:57;;;;;;;;;;;5.70;99.90;;;;;;4899798;29;20009;-67
2023/01/16 06:31:23;;;;;;;;;;;5.70;99.90;;;;;;4898869;29;20410;-68
2023/01/16 06:33:48;;;;;;;;;;;5.70;99.90;;;;;;4900117;29;19919;-68
2023/01/16 06:36:14;;;;;;;;;;;5.80;99.90;;;;;;4901371;29;19919;-68
2023/01/16 06:38:39;;;;;;;;;;;5.70;99.90;;;;;;4900463;29;20187;-68
2023/01/16 06:41:05;;;;;;;;;;;5.70;99.90;;;;;;4902360;29;19965;-67
2023/01/16 06:43:30;;;;;;;;;;;5.70;99.90;;;;;;4902100;29;19974;-67
2023/01/16 06:45:56;;;;;;;;;;;5.70;99.90;;;;;;4902196;29;20296;-67
2023/01/16 06:48:22;;;;;;;;;;;5.70;99.90;;;;;;4896730;29;19923;-67
2023/01/16 06:50:47;;;;;;;;;;;5.70;99.90;;;;;;4897153;29;19947;-67
2023/01/16 06:53:13;;;;;;;;;;;5.70;99.90;;;;;;4898032;29;20344;-67
2023/01/16 06:55:40;;;;;;;;;;;5.70;99.90;;;;;;4904047;29;20014;-67
2023/01/16 06:58:05;;;;;;;;;;;5.70;99.90;;;;;;4899994;29;19911;-67
2023/01/16 07:00:31;;;;;;;;;;;5.70;99.90;;;;;;4898509;29;20001;-67
2023/01/16 07:02:56;;;;;;;;;;;5.70;99.90;;;;;;4901130;29;19922;-68
2023/01/16 07:05:25;;;;;;;;;;;5.80;99.90;;;;;;4900630;29;19915;-67
2023/01/16 07:07:51;;;;;;;;;;;5.80;99.90;;;;;;4897966;29;19954;-67
2023/01/16 07:10:17;;;;;;;;;;;5.80;99.90;;;;;;4892619;29;19925;-67
2023/01/16 07:12:42;;;;;;;;;;;5.80;99.90;;;;;;4887526;29;19919;-68
2023/01/16 07:23:26;;;;;;;;;;;5.80;99.90;;;;;;4901741;29;19918;-67
2023/01/16 07:25:53;;;;;;;;;;;5.80;99.90;;;;;;4899411;29;19923;-67
2023/01/16 07:28:18;;;;;;;;;;;5.80;99.90;;;;;;4904049;29;19926;-67
2023/01/16 07:30:44;;;;;;;;;;;5.80;99.90;;;;;;4897705;29;20365;-67
2023/01/16 07:33:10;;;;;;;;;;;5.80;99.90;;;;;;4905527;29;20261;-64
2023/01/16 07:35:36;;;;;;;;;;;5.80;99.90;;;;;;4905117;29;19983;-64
2023/01/16 07:38:02;;;;;;;;;;;5.80;99.90;;;;;;4906870;29;19907;-65
2023/01/16 07:40:27;;;;;;;;;;;5.80;99.90;;;;;;4898981;29;20556;-64
2023/01/16 07:42:53;;;;;;;;;;;5.80;99.90;;;;;;4903148;29;19926;-65
2023/01/16 07:45:18;;;;;;;;;;;5.80;99.90;;;;;;4894756;29;20380;-63
2023/01/16 07:47:44;;;;;;;;;;;5.80;99.90;;;;;;4902051;29;20476;-64
2023/01/16 07:50:09;;;;;;;;;;;5.80;99.90;;;;;;4895468;29;20006;-64
2023/01/16 07:52:35;;;;;;;;;;;5.70;99.90;;;;;;4896374;29;19911;-64
2023/01/16 07:55:00;;;;;;;;;;;5.70;99.90;;;;;;4897486;29;20624;-64
2023/01/16 07:57:26;;;;;;;;;;;5.70;99.90;;;;;;4901059;29;19926;-64
2023/01/16 07:59:53;;;;;;;;;;;5.80;99.90;;;;;;4901265;29;19919;-64
2023/01/16 08:02:18;;;;;;;;;;;5.70;99.90;;;;;;4905316;29;19974;-64
2023/01/16 08:04:44;;;;;;;;;;;5.80;99.90;;;;;;4896109;29;20746;-64
2023/01/16 08:07:09;;;;;;;;;;;5.80;99.90;;;;;;4902882;29;19946;-64
2023/01/16 08:09:35;;;;;;;;;;;5.80;99.90;;;;;;4904673;29;19923;-64
2023/01/16 08:12:00;;;;;;;;;;;5.80;99.90;;;;;;4899139;29;19933;-67
2023/01/16 08:14:26;;;;;;;;;;;5.90;99.90;;;;;;4897458;29;19919;-67
2023/01/16 08:16:51;;;;;;;;;;;5.90;99.90;;;;;;4889583;29;20013;-67
2023/01/16 08:19:17;;;;;;;;;;;5.90;99.90;;;;;;4899528;29;19926;-67
2023/01/16 08:21:43;;;;;;;;;;;5.80;99.90;;;;;;4904560;29;20380;-67
2023/01/16 08:24:09;;;;;;;;;;;5.70;99.90;;;;;;4894463;29;19919;-67
2023/01/16 08:26:35;;;;;;;;;;;5.60;99.90;;;;;;4905173;29;19915;-67
2023/01/16 08:29:02;;;;;;;;;;;5.60;99.90;;;;;;4904996;29;19923;-67
2023/01/16 08:31:28;;;;;;;;;;;5.60;99.90;;;;;;4904874;29;19918;-67
2023/01/16 08:33:53;;;;;;;;;;;5.60;99.90;;;;;;4898000;29;19915;-66
2023/01/16 08:36:20;;;;;;;;;;;5.60;99.90;;;;;;4899861;29;19953;-66
2023/01/16 08:38:46;;;;;;;;;;;5.60;99.90;;;;;;4904835;29;19911;-66
2023/01/16 08:52:10;;;;;;;;;;;5.70;99.90;;;;;;4907163;29;19926;-63
2023/01/16 08:54:36;;;;;;;;;;;5.70;99.90;;;;;;4900439;29;19923;-64
2023/01/16 08:57:02;;;;;;;;;;;5.70;99.90;;;;;;4901934;29;19939;-64
2023/01/16 08:59:32;;;;;;;;;;;5.70;99.90;;;;;;4900674;29;19997;-63
2023/01/16 09:02:02;;;;;;;;;;;5.70;99.90;;;;;;4902453;29;19920;-64
2023/01/16 09:04:27;;;;;;;;;;;5.70;99.90;;;;;;4903464;29;20389;-63
2023/01/16 09:06:53;;;;;;;;;;;5.70;99.90;;;;;;4906834;29;19954;-63
2023/01/16 09:09:19;;;;;;;;;;;5.60;99.90;;;;;;4905104;29;20478;-63
2023/01/16 09:14:29;;;;;;;;;;;5.60;99.90;;;;;;4905800;29;20128;-64
2023/01/16 09:16:55;;;;;;;;;;;5.60;99.90;;;;;;4905966;29;20001;-66
2023/01/16 09:19:21;;;;;;;;;;;5.60;99.90;;;;;;4905657;29;20356;-64
2023/01/16 09:21:46;;;;;;;;;;;5.70;99.90;;;;;;4905695;29;20799;-64
2023/01/16 09:24:11;;;;;;;;;;;5.70;99.90;;;;;;4902381;29;19919;-64
2023/01/16 09:26:37;;;;;;;;;;;5.70;99.90;;;;;;4897397;29;19918;-65
2023/01/16 09:29:03;;;;;;;;;;;5.70;99.90;;;;;;4906180;29;19947;-64
2023/01/16 09:31:28;;;;;;;;;;;5.60;99.90;;;;;;4904057;29;20436;-64
2023/01/16 09:33:54;;;;;;;;;;;5.60;99.90;;;;;;4904733;29;19915;-65
2023/01/16 09:36:20;;;;;;;;;;;5.70;99.90;;;;;;4905200;29;19966;-65
2023/01/16 09:38:46;;;;;;;;;;;5.60;99.90;;;;;;4900686;29;19918;-64
2023/01/16 09:43:35;;;;;;;;;;;5.60;99.90;;;;;;4900056;29;19915;-65
2023/01/16 09:43:59;;;;;;;;;;;5.60;99.90;;;;;;4902523;29;20421;-64
2023/01/16 09:46:27;;;;;;;;;;;5.60;99.90;;;;;;4901551;29;19923;-64
2023/01/16 09:49:01;;;;;;;;;;;5.60;99.90;;;;;;4896790;29;19927;-64
2023/01/16 09:51:35;;;;;;;;;;;5.60;99.90;;;;;;4901573;29;19944;-65
2023/01/16 09:59:40;;;;;;;;;;;5.40;99.90;;;;;;4895229;29;19945;-63
2023/01/16 10:02:15;;;;;;;;;;;5.50;99.90;;;;;;4904917;29;19919;-63
2023/01/16 10:04:41;;;;;;;;;;;5.50;99.90;;;;;;4899496;29;19954;-62
2023/01/16 10:07:16;;;;;;;;;;;5.50;99.90;;;;;;4903773;29;19922;-62
2023/01/16 10:10:01;;;;;;;;;;;5.60;99.90;;;;;;4898898;29;19922;-62
2023/01/16 10:12:31;;;;;;;;;;;5.70;99.90;;;;;;4902811;29;19918;-63
2023/01/16 10:14:59;;;;;;;;;;;5.70;99.90;;;;;;4899979;29;20644;-63
2023/01/16 10:17:32;;;;;;;;;;;5.70;99.90;;;;;;4905098;29;19915;-62
2023/01/16 10:20:16;;;;;;;;;;;5.80;99.90;;;;;;4905543;29;20359;-63
2023/01/16 10:22:54;;;;;;;;;;;5.80;99.90;;;;;;4907487;29;19987;-62
2023/01/16 10:25:22;;;;;;;;;;;5.80;99.90;;;;;;4903214;29;19911;-63
2023/01/16 10:27:58;;;;;;;;;;;5.80;99.90;;;;;;4904852;29;19942;-63
2023/01/16 10:30:29;;;;;;;;;;;5.70;99.90;;;;;;4895977;29;19916;-63
2023/01/16 10:32:54;;;;;;;;;;;5.70;99.90;;;;;;4904306;29;19917;-63
2023/01/16 10:35:25;;;;;;;;;;;5.80;99.90;;;;;;4905669;29;20311;-63
2023/01/16 10:37:51;;;;;;;;;;;5.80;99.90;;;;;;4911792;29;20327;-63
2023/01/16 10:40:24;;;;;;;;;;;5.90;99.90;;;;;;4898534;29;19919;-63
2023/01/16 10:51:23;;;;;;;;;;;5.70;99.90;;;;;;4889664;29;19911;-67
2023/01/16 10:53:49;;;;;;;;;;;5.80;99.90;;;;;;4902561;29;20265;-67
2023/01/16 10:56:14;;;;;;;;;;;5.70;99.90;;;;;;4907782;29;19915;-67
2023/01/16 10:58:40;;;;;;;;;;;5.70;99.90;;;;;;4907155;29;19915;-67
2023/01/16 11:01:11;;;;;;;;;;;5.80;99.90;;;;;;4898237;29;21417;-67
2023/01/16 11:03:39;;;;;;;;;;;5.80;99.90;;;;;;4904591;29;19915;-67
2023/01/16 11:06:08;;;;;;;;;;;5.80;99.90;;;;;;4901867;29;19950;-67
2023/01/16 11:08:34;;;;;;;;;;;5.80;99.90;;;;;;4892630;29;19927;-67
2023/01/16 11:11:00;;;;;;;;;;;5.80;99.90;;;;;;4902608;29;19965;-67
2023/01/16 11:18:55;;;;;;;;;;;5.70;99.90;;;;;;4906146;29;19939;-67
2023/01/16 11:21:27;;;;;;;;;;;5.70;99.90;;;;;;4900205;29;19919;-68
2023/01/16 11:24:00;;;;;;;;;;;5.70;99.90;;;;;;4898707;29;19921;-65
2023/01/16 11:26:26;;;;;;;;;;;5.70;99.90;;;;;;4899205;29;19919;-65
2023/01/16 11:28:53;;;;;;;;;;;5.80;99.90;;;;;;4902182;29;19934;-65
2023/01/16 11:31:21;;;;;;;;;;;5.90;99.90;;;;;;4899448;29;20365;-64
2023/01/16 11:33:54;;;;;;;;;;;5.90;99.90;;;;;;4903961;29;19915;-65
2023/01/16 11:36:21;;;;;;;;;;;6.00;99.90;;;;;;4905299;29;19915;-65
2023/01/16 11:38:47;;;;;;;;;;;6.00;99.90;;;;;;4898550;29;19915;-65
2023/01/16 11:41:16;;;;;;;;;;;6.00;99.90;;;;;;4904445;29;19962;-65
2023/01/16 11:46:40;;;;;;;;;;;6.10;99.90;;;;;;4889664;29;19972;-65
2023/01/16 11:49:23;;;;;;;;;;;6.10;99.90;;;;;;4899765;29;19920;-65
2023/01/16 11:51:51;;;;;;;;;;;6.10;99.90;;;;;;4904731;29;19911;-65
2023/01/16 11:54:18;;;;;;;;;;;6.10;99.90;;;;;;4895571;29;19930;-65
2023/01/16 11:56:50;;;;;;;;;;;6.10;99.90;;;;;;4908108;29;19911;-65
2023/01/16 11:59:16;;;;;;;;;;;6.10;99.90;;;;;;4919306;29;20368;-65
2023/01/16 12:04:31;;;;;;;;;;;6.10;99.90;;;;;;4906249;29;19925;-65
2023/01/16 12:07:03;;;;;;;;;;;6.10;99.90;;;;;;4905462;29;19915;-65
2023/01/16 12:09:33;;;;;;;;;;;6.10;99.90;;;;;;4907187;29;19922;-65
2023/01/16 12:15:05;;;;;;;;;;;6.20;99.90;;;;;;4902872;29;20049;-65
2023/01/16 12:17:46;;;;;;;;;;;6.40;99.90;;;;;;4900290;29;20273;-65
2023/01/16 12:20:12;;;;;;;;;;;6.40;99.90;;;;;;4906150;29;19915;-68
2023/01/16 12:22:56;;;;;;;;;;;6.60;99.90;;;;;;4917793;29;19919;-68
2023/01/16 12:25:28;;;;;;;;;;;6.60;99.90;;;;;;4906752;29;19947;-67
2023/01/16 12:28:01;;;;;;;;;;;6.60;99.90;;;;;;4899936;29;19918;-67
2023/01/16 12:30:50;;;;;;;;;;;6.50;99.90;;;;;;4904414;29;19922;-67
2023/01/16 12:33:22;;;;;;;;;;;6.40;99.90;;;;;;4904286;29;20023;-67
2023/01/16 12:36:01;;;;;;;;;;;6.50;99.90;;;;;;4903289;29;19986;-67
2023/01/16 12:38:28;;;;;;;;;;;6.50;99.90;;;;;;4903625;29;19951;-68
2023/01/16 12:44:07;;;;;;;;;;;6.50;99.90;;;;;;4904615;29;19966;-65
2023/01/16 12:46:32;;;;;;;;;;;6.40;99.90;;;;;;4901291;29;19911;-65
2023/01/16 12:49:04;;;;;;;;;;;6.30;99.90;;;;;;4900328;29;20281;-65
2023/01/16 12:51:29;;;;;;;;;;;6.20;99.90;;;;;;4904552;29;19919;-65
2023/01/16 12:53:55;;;;;;;;;;;6.10;99.90;;;;;;4904580;29;19966;-65
2023/01/16 12:56:26;;;;;;;;;;;6.10;99.90;;;;;;4906492;29;20015;-65
2023/01/16 12:58:54;;;;;;;;;;;6.20;99.90;;;;;;4906082;29;19907;-68
2023/01/16 13:01:22;;;;;;;;;;;6.10;99.90;;;;;;4903130;29;20489;-68
2023/01/16 13:04:06;;;;;;;;;;;6.20;99.90;;;;;;4896299;29;19922;-67
2023/01/16 13:06:38;;;;;;;;;;;6.20;99.90;;;;;;4889103;29;19922;-68
2023/01/16 13:09:09;;;;;;;;;;;6.20;99.90;;;;;;4896919;29;19930;-68
2023/01/16 13:14:26;;;;;;;;;;;6.40;99.90;;;;;;4892635;29;20009;-68
2023/01/16 13:16:52;;;;;;;;;;;6.40;99.90;;;;;;4894607;29;19926;-67
2023/01/16 13:19:20;;;;;;;;;;;6.40;99.90;;;;;;4891904;29;19915;-67
2023/01/16 13:22:02;;;;;;;;;;;6.40;99.90;;;;;;4894633;29;19950;-67
2023/01/16 13:24:32;;;;;;;;;;;6.40;99.90;;;;;;4890154;29;19923;-67
2023/01/16 13:27:01;;;;;;;;;;;6.40;99.90;;;;;;4891862;29;19922;-67
2023/01/16 13:29:47;;;;;;;;;;;6.40;99.90;;;;;;4895043;29;19930;-67
2023/01/16 13:32:21;;;;;;;;;;;6.50;99.90;;;;;;4902553;29;19998;-67
2023/01/16 13:34:50;;;;;;;;;;;6.50;99.90;;;;;;4902616;29;19917;-64
2023/01/16 13:37:16;;;;;;;;;;;6.50;99.90;;;;;;4896575;29;20677;-64
2023/01/16 13:40:00;;;;;;;;;;;6.50;99.90;;;;;;4902967;29;19919;-64
2023/01/16 13:42:27;;;;;;;;;;;6.50;99.90;;;;;;4905933;29;19922;-64
2023/01/16 13:47:40;;;;;;;;;;;6.60;99.90;;;;;;4900908;29;19929;-64
2023/01/16 13:50:18;;;;;;;;;;;6.70;99.90;;;;;;4903208;29;19993;-64
2023/01/16 13:52:43;;;;;;;;;;;6.70;99.90;;;;;;4895833;29;19919;-65
2023/01/16 13:55:17;;;;;;;;;;;6.70;99.90;;;;;;4900203;29;19972;-67
2023/01/16 13:57:46;;;;;;;;;;;6.80;99.90;;;;;;4894913;29;19918;-64
2023/01/16 14:00:12;;;;;;;;;;;6.60;99.90;;;;;;4872624;29;19915;-65
2023/01/16 14:02:42;;;;;;;;;;;6.50;99.90;;;;;;4887376;29;19915;-65
2023/01/16 14:05:08;;;;;;;;;;;6.50;99.90;;;;;;4902680;29;19915;-65
2023/01/16 14:10:43;;;;;;;;;;;6.50;99.90;;;;;;4889583;29;19987;-65
2023/01/16 14:13:18;;;;;;;;;;;6.60;99.90;;;;;;4900454;29;20034;-64
2023/01/16 14:18:36;;;;;;;;;;;6.70;99.90;;;;;;4896208;29;19918;-64
2023/01/16 14:21:03;;;;;;;;;;;6.70;99.90;;;;;;4885684;29;19950;-64
2023/01/16 14:26:19;;;;;;;;;;;6.80;99.90;;;;;;4890995;29;19922;-65
2023/01/16 14:28:50;;;;;;;;;;;6.70;99.90;;;;;;4893774;29;20690;-65
2023/01/16 14:31:24;;;;;;;;;;;6.70;99.90;;;;;;4899999;29;19922;-64
2023/01/16 14:33:50;;;;;;;;;;;6.50;99.90;;;;;;4885117;29;23115;-67
2023/01/16 14:36:17;;;;;;;;;;;6.50;99.90;;;;;;4901144;29;20017;-67
2023/01/16 14:38:45;;;;;;;;;;;6.50;99.90;;;;;;4897607;29;20288;-67
2023/01/16 14:55:26;;;;;;;;;;;6.20;99.90;;;;;;4894716;29;20001;-63
2023/01/16 14:57:53;;;;;;;;;;;6.10;99.90;;;;;;4892860;29;19919;-67
2023/01/16 15:00:19;;;;;;;;;;;6.00;99.90;;;;;;4892103;29;19922;-65
2023/01/16 15:03:08;;;;;;;;;;;6.60;99.90;;;;;;4889824;29;19923;-64
2023/01/16 15:05:51;;;;;;;;;;;6.50;99.90;;;;;;4893033;29;21513;-63
2023/01/16 15:08:28;;;;;;;;;;;6.40;99.90;;;;;;4887815;29;20357;-64
2023/01/16 15:10:55;;;;;;;;;;;6.40;99.90;;;;;;4888413;29;20337;-66
2023/01/16 15:13:23;;;;;;;;;;;6.20;99.90;;;;;;4886500;29;19919;-64
2023/01/16 15:16:03;;;;;;;;;;;6.10;99.90;;;;;;4884045;29;19919;-64
2023/01/16 15:24:02;;;;;;;;;;;6.20;99.90;;;;;;4884431;29;20093;-62
2023/01/16 15:26:27;;;;;;;;;;;6.20;99.90;;;;;;4897456;29;19915;-63
2023/01/16 15:28:58;;;;;;;;;;;6.20;99.90;;;;;;4892376;29;20280;-63
2023/01/16 15:31:29;;;;;;;;;;;6.20;99.90;;;;;;4895667;29;19915;-62
2023/01/16 15:34:03;;;;;;;;;;;6.20;99.90;;;;;;4892679;29;19915;-62
2023/01/16 15:36:36;;;;;;;;;;;6.20;99.90;;;;;;4893025;29;21850;-62
2023/01/16 15:39:11;;;;;;;;;;;6.20;99.90;;;;;;4899393;29;19915;-63
2023/01/16 15:47:07;;;;;;;;;;;6.20;99.90;;;;;;4898069;29;19915;-63
2023/01/16 15:49:49;;;;;;;;;;;6.20;99.90;;;;;;4894397;29;19923;-63
2023/01/16 15:52:14;;;;;;;;;;;6.20;99.90;;;;;;4920979;29;19993;-63
2023/01/16 15:54:40;;;;;;;;;;;6.10;99.90;;;;;;4899981;29;20013;-63
2023/01/16 15:57:13;;;;;;;;;;;6.20;99.90;;;;;;4908207;29;21271;-63
2023/01/16 15:59:38;;;;;;;;;;;6.20;99.90;;;;;;4904813;29;20614;-63
2023/01/16 16:02:16;;;;;;;;;;;6.20;99.90;;;;;;4901050;29;19916;-63
2023/01/16 16:04:42;;;;;;;;;;;6.20;99.90;;;;;;4898602;29;20054;-63
2023/01/16 16:07:07;;;;;;;;;;;6.10;99.90;;;;;;4897254;29;20457;-63
2023/01/16 16:09:34;;;;;;;;;;;6.10;99.90;;;;;;4901913;29;19937;-66
2023/01/16 16:12:04;;;;;;;;;;;6.10;99.90;;;;;;4898186;29;19911;-66
2023/01/16 16:20:20;;;;;;;;;;;6.10;99.90;;;;;;4897276;29;20421;-66
2023/01/16 16:22:48;;;;;;;;;;;6.20;99.90;;;;;;4881645;29;19919;-67